createdAt,value
2017-08-05T00:01:50.726Z,77.40
2017-08-05T00:04:24.544Z,77.50
2017-08-05T00:06:58.436Z,77.50
2017-08-05T00:09:32.516Z,78.00
2017-08-05T00:12:08.665Z,79.50
2017-08-05T00:14:42.551Z,79.30
2017-08-05T00:17:17.072Z,79.40
2017-08-05T00:19:51.600Z,78.80
2017-08-05T00:22:27.838Z,78.50
2017-08-05T00:25:01.784Z,78.40
2017-08-05T00:27:35.632Z,78.60
2017-08-05T00:30:10.417Z,78.50
2017-08-05T00:32:45.001Z,78.50
2017-08-05T00:35:19.535Z,79.00
2017-08-05T00:37:54.903Z,79.20
2017-08-05T00:40:29.434Z,79.20
2017-08-05T00:43:03.197Z,79.10
2017-08-05T00:45:37.876Z,79.30
2017-08-05T00:48:12.961Z,79.10
2017-08-05T00:50:47.010Z,79.30
2017-08-05T00:53:21.007Z,79.30
2017-08-05T00:55:54.873Z,79.50
2017-08-05T00:58:28.746Z,79.50
2017-08-05T01:01:03.483Z,79.30
2017-08-05T01:03:38.256Z,79.60
2017-08-05T01:06:12.413Z,79.40
2017-08-05T01:08:46.676Z,79.40
2017-08-05T01:11:20.340Z,79.70
2017-08-05T01:13:56.706Z,80.50
2017-08-05T01:16:31.069Z,80.50
2017-08-05T01:19:05.829Z,80.90
2017-08-05T01:21:39.650Z,80.90
2017-08-05T01:24:13.720Z,80.90
2017-08-05T01:26:47.543Z,80.70
2017-08-05T01:29:22.132Z,80.40
2017-08-05T01:31:55.996Z,80.20
2017-08-05T01:37:14.713Z,80.10
2017-08-05T01:39:48.567Z,80.00
2017-08-05T01:42:22.572Z,79.80
2017-08-05T01:44:56.547Z,79.60
2017-08-05T01:47:30.390Z,79.80
2017-08-05T01:50:05.056Z,80.00
2017-08-05T01:52:38.931Z,79.90
2017-08-05T01:55:13.604Z,80.10
2017-08-05T01:57:47.447Z,80.00
2017-08-05T02:00:22.150Z,82.40
2017-08-05T02:02:58.244Z,82.70
2017-08-05T02:05:32.124Z,82.60
2017-08-05T02:08:07.329Z,83.10
2017-08-05T02:10:41.633Z,82.30
2017-08-05T02:13:15.578Z,81.90
2017-08-05T02:15:50.309Z,80.90
2017-08-05T02:18:24.187Z,80.80
2017-08-05T02:20:57.923Z,80.80
2017-08-05T02:23:32.567Z,80.80
2017-08-05T02:26:07.390Z,80.40
2017-08-05T02:28:42.118Z,79.90
2017-08-05T02:31:15.887Z,79.80
2017-08-05T02:33:50.676Z,79.90
2017-08-05T02:36:24.526Z,79.90
2017-08-05T02:38:58.304Z,79.70
2017-08-05T02:41:32.165Z,79.80
2017-08-05T02:44:05.938Z,79.70
2017-08-05T02:46:40.492Z,79.90
2017-08-05T02:49:14.315Z,79.40
2017-08-05T02:51:48.140Z,79.40
2017-08-05T02:54:21.940Z,79.30
2017-08-05T02:56:55.862Z,79.60
2017-08-05T02:59:31.263Z,79.40
2017-08-05T03:02:07.604Z,79.50
2017-08-05T03:04:42.297Z,79.50
2017-08-05T03:07:16.125Z,79.40
2017-08-05T03:09:50.722Z,79.80
2017-08-05T03:12:26.000Z,79.70
2017-08-05T03:14:59.778Z,79.80
2017-08-05T03:17:36.408Z,81.00
2017-08-05T03:20:10.279Z,80.30
2017-08-05T03:22:46.040Z,80.30
2017-08-05T03:25:20.392Z,80.30
2017-08-05T03:27:54.876Z,80.00
2017-08-05T03:30:28.743Z,80.20
2017-08-05T03:33:02.494Z,81.20
2017-08-05T03:35:36.497Z,81.50
2017-08-05T03:38:10.541Z,81.70
2017-08-05T03:40:44.941Z,81.70
2017-08-05T03:43:19.885Z,81.60
2017-08-05T03:45:56.236Z,81.10
2017-08-05T03:48:30.042Z,81.70
2017-08-05T03:51:03.812Z,81.50
2017-08-05T03:53:38.418Z,81.00
2017-08-05T03:56:11.997Z,81.00
2017-08-05T03:58:46.474Z,80.70
2017-08-05T04:01:20.491Z,80.60
2017-08-05T04:03:54.279Z,80.80
2017-08-05T04:06:28.009Z,80.90
2017-08-05T04:09:02.735Z,81.30
2017-08-05T04:11:36.627Z,81.80
2017-08-05T04:14:10.674Z,82.00
2017-08-05T04:16:44.556Z,81.30
2017-08-05T04:19:19.209Z,81.90
2017-08-05T04:21:57.517Z,81.90
2017-08-05T04:24:33.013Z,81.60
2017-08-05T04:27:06.877Z,81.80
2017-08-05T04:29:41.497Z,82.20
2017-08-05T04:32:16.251Z,82.00
2017-08-05T04:34:50.856Z,82.40
2017-08-05T04:37:26.033Z,82.10
2017-08-05T04:40:00.611Z,81.90
2017-08-05T04:42:35.012Z,82.30
2017-08-05T04:45:10.622Z,82.30
2017-08-05T04:47:45.040Z,82.20
2017-08-05T04:50:19.056Z,81.80
2017-08-05T04:52:53.283Z,81.70
2017-08-05T04:55:27.293Z,81.60
2017-08-05T04:58:01.574Z,81.60
2017-08-05T05:00:35.345Z,82.10
2017-08-05T05:03:09.090Z,82.10
2017-08-05T05:05:43.010Z,82.30
2017-08-05T05:08:17.707Z,82.70
2017-08-05T05:10:51.861Z,82.70
2017-08-05T05:13:25.655Z,82.60
2017-08-05T05:15:59.548Z,82.10
2017-08-05T05:18:34.399Z,82.10
2017-08-05T05:21:08.275Z,82.20
2017-08-05T05:23:41.883Z,82.20
2017-08-05T05:26:16.590Z,81.10
2017-08-05T05:28:52.259Z,81.10
2017-08-05T05:31:26.174Z,81.00
2017-08-05T05:34:00.915Z,81.30
2017-08-05T05:36:35.453Z,81.30
2017-08-05T05:39:09.268Z,81.40
2017-08-05T05:41:44.522Z,81.00
2017-08-05T05:44:18.413Z,81.00
2017-08-05T05:46:52.216Z,80.80
2017-08-05T05:49:26.891Z,81.20
2017-08-05T05:52:00.567Z,81.10
2017-08-05T05:54:34.983Z,80.90
2017-08-05T05:57:08.794Z,81.30
2017-08-05T05:59:42.493Z,81.30
2017-08-05T06:02:17.462Z,81.20
2017-08-05T06:04:52.197Z,81.10
2017-08-05T06:07:26.294Z,80.90
2017-08-05T06:10:00.056Z,80.70
2017-08-05T06:12:34.832Z,79.70
2017-08-05T06:15:09.591Z,79.50
2017-08-05T06:17:45.147Z,79.50
2017-08-05T06:20:20.627Z,79.60
2017-08-05T06:22:54.303Z,79.40
2017-08-05T06:25:29.950Z,79.60
2017-08-05T06:28:03.875Z,79.00
2017-08-05T06:30:38.144Z,79.10
2017-08-05T06:33:12.588Z,79.70
2017-08-05T06:35:47.521Z,79.40
2017-08-05T06:38:23.535Z,80.50
2017-08-05T06:40:57.493Z,80.30
2017-08-05T06:43:32.063Z,79.60
2017-08-05T06:46:06.151Z,79.50
2017-08-05T06:48:40.379Z,78.80
2017-08-05T06:51:22.535Z,78.80
2017-08-05T06:53:57.225Z,78.20
2017-08-05T06:56:31.091Z,77.70
2017-08-05T06:59:04.977Z,76.80
2017-08-05T07:01:38.777Z,76.80
2017-08-05T07:04:13.326Z,76.80
2017-08-05T07:06:47.189Z,76.70
2017-08-05T07:09:22.013Z,77.10
2017-08-05T07:11:56.086Z,77.80
2017-08-05T07:14:29.981Z,77.60
2017-08-05T07:17:04.568Z,76.80
2017-08-05T07:19:39.247Z,76.80
2017-08-05T07:22:13.788Z,75.70
2017-08-05T07:24:47.746Z,75.70
2017-08-05T07:27:22.426Z,76.00
2017-08-05T07:29:56.567Z,75.70
2017-08-05T07:32:30.633Z,76.20
2017-08-05T07:35:04.715Z,76.60
2017-08-05T07:37:38.977Z,76.10
2017-08-05T07:40:12.813Z,73.90
2017-08-05T07:42:47.466Z,73.70
2017-08-05T07:45:22.052Z,73.00
2017-08-05T07:47:57.428Z,74.20
2017-08-05T07:50:32.058Z,74.00
2017-08-05T07:53:06.552Z,74.10
2017-08-05T07:55:40.601Z,73.90
2017-08-05T07:58:18.153Z,74.40
2017-08-05T08:00:53.134Z,73.50
2017-08-05T08:03:28.026Z,72.70
2017-08-05T08:06:01.639Z,72.00
2017-08-05T08:08:36.053Z,70.80
2017-08-05T08:11:10.123Z,73.60
2017-08-05T08:13:43.918Z,73.80
2017-08-05T08:16:19.447Z,72.10
2017-08-05T08:18:53.135Z,72.10
2017-08-05T08:21:27.431Z,72.60
2017-08-05T08:24:01.867Z,68.60
2017-08-05T08:26:36.273Z,71.00
2017-08-05T08:29:10.948Z,70.90
2017-08-05T08:31:45.677Z,70.30
2017-08-05T08:34:19.628Z,69.80
2017-08-05T08:36:54.122Z,70.80
2017-08-05T08:39:28.010Z,68.30
2017-08-05T08:42:02.586Z,67.80
2017-08-05T08:44:37.987Z,68.80
2017-08-05T08:47:13.515Z,71.20
2017-08-05T08:49:47.395Z,71.20
2017-08-05T08:52:22.474Z,71.00
2017-08-05T08:54:56.280Z,70.40
2017-08-05T08:57:30.530Z,69.40
2017-08-05T09:00:05.211Z,68.40
2017-08-05T09:02:39.057Z,68.40
2017-08-05T09:05:13.495Z,69.30
2017-08-05T09:07:49.154Z,68.80
2017-08-05T09:10:25.764Z,69.00
2017-08-05T09:12:59.566Z,69.00
2017-08-05T09:15:33.509Z,68.30
2017-08-05T09:18:07.104Z,68.00
2017-08-05T09:20:40.942Z,69.30
2017-08-05T09:23:15.475Z,68.40
2017-08-05T09:25:49.271Z,67.20
2017-08-05T09:28:23.938Z,68.30
2017-08-05T09:30:57.781Z,68.10
2017-08-05T09:33:31.477Z,68.30
2017-08-05T09:36:05.288Z,68.10
2017-08-05T09:38:39.953Z,70.50
2017-08-05T09:41:13.825Z,70.40
2017-08-05T09:43:48.530Z,67.80
2017-08-05T09:46:22.833Z,67.70
2017-08-05T09:48:57.356Z,68.00
2017-08-05T09:51:32.411Z,65.60
2017-08-05T09:54:07.281Z,65.70
2017-08-05T09:56:41.796Z,65.70
2017-08-05T09:59:15.702Z,66.90
2017-08-05T10:01:49.633Z,65.40
2017-08-05T10:04:24.186Z,64.60
2017-08-05T10:06:58.815Z,64.60
2017-08-05T10:09:32.707Z,64.50
2017-08-05T10:12:06.564Z,64.10
2017-08-05T10:14:41.227Z,62.90
2017-08-05T10:17:15.068Z,62.90
2017-08-05T10:19:50.714Z,64.50
2017-08-05T10:22:24.456Z,62.40
2017-08-05T10:24:58.332Z,62.20
2017-08-05T10:27:32.302Z,61.70
2017-08-05T10:30:06.123Z,62.50
2017-08-05T10:32:43.183Z,62.50
2017-08-05T10:35:20.113Z,59.90
2017-08-05T10:37:57.598Z,62.60
2017-08-05T10:40:38.514Z,59.40
2017-08-05T10:43:14.264Z,58.60
2017-08-05T10:45:48.962Z,59.20
2017-08-05T10:48:23.927Z,60.40
2017-08-05T10:50:58.426Z,61.60
2017-08-05T10:53:34.539Z,61.10
2017-08-05T10:56:08.246Z,59.60
2017-08-05T10:58:42.837Z,59.20
2017-08-05T11:01:20.294Z,61.40
2017-08-05T11:03:54.536Z,58.90
2017-08-05T11:06:28.251Z,60.40
2017-08-05T11:09:03.328Z,58.40
2017-08-05T11:11:37.508Z,59.70
2017-08-05T11:14:11.748Z,57.80
2017-08-05T11:16:48.044Z,58.00
2017-08-05T11:19:22.684Z,57.50
2017-08-05T11:21:56.508Z,57.00
2017-08-05T11:24:32.105Z,58.00
2017-08-05T11:27:07.070Z,54.60
2017-08-05T11:29:45.166Z,54.50
2017-08-05T11:32:20.454Z,55.70
2017-08-05T11:34:55.286Z,55.70
2017-08-05T11:37:30.063Z,56.30
2017-08-05T11:40:04.501Z,56.30
2017-08-05T11:42:38.772Z,56.60
2017-08-05T11:45:16.460Z,56.20
2017-08-05T11:47:52.683Z,56.60
2017-08-05T11:50:30.600Z,56.90
2017-08-05T11:53:04.388Z,57.20
2017-08-05T11:55:39.109Z,57.50
2017-08-05T11:58:15.616Z,57.50
2017-08-05T12:00:50.677Z,57.60
2017-08-05T12:03:30.173Z,57.20
2017-08-05T12:06:04.987Z,57.20
2017-08-05T12:08:40.020Z,57.00
2017-08-05T12:11:14.829Z,56.90
2017-08-05T12:13:55.285Z,56.40
2017-08-05T12:16:31.412Z,55.90
2017-08-05T12:21:53.566Z,56.90
2017-08-05T12:24:27.739Z,56.90
2017-08-05T12:27:01.927Z,56.10
2017-08-05T12:29:36.866Z,58.50
2017-08-05T12:32:11.684Z,56.90
2017-08-05T12:34:45.997Z,56.90
2017-08-05T12:37:19.978Z,57.40
2017-08-05T12:39:54.837Z,56.70
2017-08-05T12:42:28.678Z,56.60
2017-08-05T12:45:02.793Z,57.00
2017-08-05T12:47:36.706Z,56.50
2017-08-05T12:50:11.400Z,58.10
2017-08-05T12:52:45.206Z,57.40
2017-08-05T12:55:19.579Z,56.00
2017-08-05T12:57:53.622Z,55.40
2017-08-05T13:00:27.626Z,57.20
2017-08-05T13:03:03.397Z,57.90
2017-08-05T13:05:37.908Z,58.40
2017-08-05T13:08:12.774Z,58.40
2017-08-05T13:10:47.919Z,58.30
2017-08-05T13:13:22.137Z,58.30
2017-08-05T13:15:56.224Z,57.70
2017-08-05T13:18:31.815Z,57.70
2017-08-05T13:21:05.685Z,58.00
2017-08-05T13:23:39.511Z,56.80
2017-08-05T13:26:13.622Z,56.20
2017-08-05T13:28:47.457Z,55.70
2017-08-05T13:31:21.273Z,55.60
2017-08-05T13:33:55.183Z,55.70
2017-08-05T13:36:31.363Z,55.20
2017-08-05T13:39:05.202Z,55.20
2017-08-05T13:41:39.768Z,55.10
2017-08-05T13:44:14.366Z,55.10
2017-08-05T13:46:48.420Z,54.70
2017-08-05T13:49:23.214Z,56.00
2017-08-05T13:51:57.220Z,56.00
2017-08-05T13:54:31.410Z,54.90
2017-08-05T13:57:06.755Z,54.40
2017-08-05T13:59:41.022Z,54.60
2017-08-05T14:02:15.231Z,53.10
2017-08-05T14:04:49.100Z,54.60
2017-08-05T14:07:23.943Z,53.40
2017-08-05T14:09:58.819Z,54.10
2017-08-05T14:12:32.776Z,54.10
2017-08-05T14:15:07.549Z,54.70
2017-08-05T14:17:43.043Z,54.20
2017-08-05T14:20:17.848Z,54.70
2017-08-05T14:22:51.833Z,54.90
2017-08-05T14:25:26.537Z,54.20
2017-08-05T14:28:00.819Z,54.50
2017-08-05T14:30:34.747Z,55.40
2017-08-05T14:33:09.538Z,55.90
2017-08-05T14:35:43.482Z,56.40
2017-08-05T14:38:17.315Z,55.00
2017-08-05T14:40:51.284Z,54.90
2017-08-05T14:43:25.052Z,54.40
2017-08-05T14:46:00.262Z,54.50
2017-08-05T14:48:34.132Z,54.20
2017-08-05T14:51:10.568Z,54.20
2017-08-05T14:53:45.528Z,54.40
2017-08-05T14:56:19.796Z,54.30
2017-08-05T14:58:53.858Z,54.90
2017-08-05T15:01:28.624Z,55.70
2017-08-05T15:04:04.305Z,56.50
2017-08-05T15:06:39.110Z,56.20
2017-08-05T15:09:13.077Z,56.80
2017-08-05T15:11:47.084Z,56.10
2017-08-05T15:14:21.175Z,55.90
2017-08-05T15:16:55.115Z,56.10
2017-08-05T15:19:29.592Z,56.60
2017-08-05T15:22:03.527Z,56.60
2017-08-05T15:24:40.446Z,56.00
2017-08-05T15:27:14.500Z,56.30
2017-08-05T15:29:48.487Z,55.20
2017-08-05T15:32:22.978Z,56.00
2017-08-05T15:34:56.679Z,55.30
2017-08-05T15:37:31.522Z,56.50
2017-08-05T15:40:05.516Z,56.50
2017-08-05T15:42:39.582Z,56.10
2017-08-05T15:45:14.293Z,56.00
2017-08-05T15:47:48.918Z,56.00
2017-08-05T15:50:22.715Z,56.70
2017-08-05T15:52:57.271Z,57.60
2017-08-05T15:55:32.426Z,57.70
2017-08-05T15:58:06.351Z,57.70
2017-08-05T16:00:40.141Z,57.50
2017-08-05T16:03:14.791Z,56.70
2017-08-05T16:05:48.477Z,56.30
2017-08-05T16:08:22.322Z,56.90
2017-08-05T16:10:56.004Z,57.00
2017-08-05T16:13:29.761Z,57.10
2017-08-05T16:16:03.558Z,57.80
2017-08-05T16:18:39.234Z,57.80
2017-08-05T16:21:13.286Z,57.70
2017-08-05T16:23:47.121Z,58.30
2017-08-05T16:26:21.122Z,58.80
2017-08-05T16:28:55.767Z,59.20
2017-08-05T16:31:29.656Z,59.20
2017-08-05T16:34:03.568Z,59.30
2017-08-05T16:36:37.389Z,58.90
2017-08-05T16:39:13.255Z,57.80
2017-08-05T16:41:47.784Z,57.80
2017-08-05T16:44:22.294Z,58.30
2017-08-05T16:46:56.371Z,58.90
2017-08-05T16:49:30.268Z,58.50
2017-08-05T16:52:04.315Z,58.70
2017-08-05T16:54:38.023Z,60.00
2017-08-05T16:57:12.648Z,60.40
2017-08-05T16:59:47.241Z,59.90
2017-08-05T17:02:22.863Z,60.50
2017-08-05T17:04:57.094Z,60.40
2017-08-05T17:07:31.068Z,60.70
2017-08-05T17:10:04.960Z,60.80
2017-08-05T17:12:38.669Z,61.80
2017-08-05T17:15:12.725Z,62.40
2017-08-05T17:17:47.349Z,61.00
2017-08-05T17:20:21.992Z,61.10
2017-08-05T17:22:56.058Z,63.00
2017-08-05T17:25:30.752Z,61.30
2017-08-05T17:28:04.764Z,61.60
2017-08-05T17:30:40.398Z,62.10
2017-08-05T17:33:18.602Z,63.10
2017-08-05T17:35:52.634Z,63.10
2017-08-05T17:38:26.880Z,62.90
2017-08-05T17:41:01.096Z,63.80
2017-08-05T17:43:35.387Z,63.90
2017-08-05T17:46:09.875Z,64.60
2017-08-05T17:48:44.221Z,64.50
2017-08-05T17:51:18.200Z,65.70
2017-08-05T17:53:54.451Z,65.80
2017-08-05T17:56:37.957Z,65.60
2017-08-05T17:59:12.121Z,65.80
2017-08-05T18:01:46.303Z,66.50
2017-08-05T18:04:20.839Z,68.70
2017-08-05T18:06:55.571Z,67.50
2017-08-05T18:09:29.217Z,67.40
2017-08-05T18:12:03.242Z,67.40
2017-08-05T18:14:37.241Z,68.40
2017-08-05T18:17:11.339Z,69.10
2017-08-05T18:19:45.713Z,69.30
2017-08-05T18:22:19.702Z,69.70
2017-08-05T18:24:53.566Z,70.40
2017-08-05T18:27:27.567Z,71.20
2017-08-05T18:30:01.409Z,71.20
2017-08-05T18:32:36.501Z,71.60
2017-08-05T18:35:10.516Z,72.10
2017-08-05T18:37:45.503Z,71.90
2017-08-05T18:40:25.916Z,71.80
2017-08-05T18:43:03.384Z,72.20
2017-08-05T18:45:37.445Z,71.60
2017-08-05T18:48:11.721Z,71.90
2017-08-05T18:50:45.842Z,72.90
2017-08-05T18:53:19.744Z,73.60
2017-08-05T18:55:54.444Z,73.30
2017-08-05T18:58:31.817Z,73.80
2017-08-05T19:01:06.529Z,73.10
2017-08-05T19:03:41.188Z,72.90
2017-08-05T19:06:15.311Z,72.80
2017-08-05T19:08:50.010Z,73.10
2017-08-05T19:11:24.312Z,73.20
2017-08-05T19:13:58.325Z,73.80
2017-08-05T19:16:33.091Z,73.50
2017-08-05T19:19:07.069Z,73.40
2017-08-05T19:21:41.080Z,73.70
2017-08-05T19:24:17.452Z,74.50
2017-08-05T19:26:51.361Z,75.10
2017-08-05T19:29:25.206Z,76.30
2017-08-05T19:31:59.186Z,78.00
2017-08-05T19:34:34.957Z,78.10
2017-08-05T19:37:09.027Z,78.00
2017-08-05T19:39:42.886Z,77.30
2017-08-05T19:42:16.858Z,76.60
2017-08-05T19:44:52.135Z,75.10
2017-08-05T19:47:25.887Z,75.00
2017-08-05T19:49:59.585Z,74.90
2017-08-05T19:52:34.246Z,74.00
2017-08-05T19:55:08.742Z,73.90
2017-08-05T19:57:42.520Z,74.30
2017-08-05T20:00:16.191Z,74.30
2017-08-05T20:02:50.897Z,75.60
2017-08-05T20:08:22.390Z,77.60
2017-08-05T20:10:56.268Z,77.60
2017-08-05T20:13:30.345Z,77.50
2017-08-05T20:16:04.253Z,77.30
2017-08-05T20:18:38.115Z,77.20
2017-08-05T20:21:12.061Z,76.80
2017-08-05T20:23:47.036Z,77.20
2017-08-05T20:26:22.898Z,77.70
2017-08-05T20:28:56.744Z,78.00
2017-08-05T20:34:08.741Z,78.20
2017-08-05T20:36:43.654Z,78.60
2017-08-05T20:39:17.434Z,79.10
2017-08-05T20:41:51.870Z,80.20
2017-08-05T20:44:27.874Z,77.90
2017-08-05T20:47:01.527Z,77.90
2017-08-05T20:49:35.778Z,76.50
2017-08-05T20:52:09.803Z,75.00
2017-08-05T20:54:43.839Z,73.70
2017-08-05T20:57:17.497Z,73.30
2017-08-05T20:59:52.188Z,73.50
2017-08-05T21:02:26.133Z,73.40
2017-08-05T21:04:59.965Z,73.90
2017-08-05T21:07:33.915Z,73.40
2017-08-05T21:10:11.517Z,74.00
2017-08-05T21:12:46.227Z,76.20
2017-08-05T21:15:20.123Z,76.10
2017-08-05T21:17:56.866Z,78.80
2017-08-05T21:20:31.479Z,82.00
2017-08-05T21:23:05.614Z,85.60
2017-08-05T21:25:41.733Z,86.80
2017-08-05T21:28:16.674Z,86.00
2017-08-05T21:30:57.126Z,86.00
2017-08-05T21:33:32.174Z,84.70
2017-08-05T21:36:06.214Z,84.70
2017-08-05T21:38:40.205Z,84.80
2017-08-05T21:41:14.446Z,83.60
2017-08-05T21:43:57.740Z,84.10
2017-08-05T21:46:32.863Z,83.60
2017-08-05T21:49:07.062Z,83.70
2017-08-05T21:51:41.322Z,83.90
2017-08-05T21:54:15.234Z,85.20
2017-08-05T21:56:49.073Z,82.90
2017-08-05T21:59:22.843Z,84.80
2017-08-05T22:01:56.541Z,83.60
2017-08-05T22:04:31.460Z,83.70
2017-08-05T22:07:06.952Z,83.20
2017-08-05T22:09:40.992Z,83.20
2017-08-05T22:12:14.847Z,83.10
2017-08-05T22:14:49.356Z,82.30
2017-08-05T22:17:23.881Z,82.00
2017-08-05T22:19:58.362Z,81.40
2017-08-05T22:22:32.176Z,81.40
2017-08-05T22:25:06.076Z,80.90
2017-08-05T22:27:41.492Z,79.70
2017-08-05T22:30:15.366Z,79.60
2017-08-05T22:32:49.206Z,79.90
2017-08-05T22:35:23.781Z,79.50
2017-08-05T22:37:57.764Z,79.50
2017-08-05T22:40:32.406Z,78.70
2017-08-05T22:43:06.462Z,79.80
2017-08-05T22:45:41.090Z,80.40
2017-08-05T22:48:15.792Z,80.00
2017-08-05T22:50:50.705Z,79.40
2017-08-05T22:53:25.809Z,76.90
2017-08-05T22:56:02.234Z,79.40
2017-08-05T22:58:39.894Z,78.70
2017-08-05T23:01:13.522Z,76.90
2017-08-05T23:03:50.168Z,79.10
2017-08-05T23:06:32.621Z,79.10
2017-08-05T23:09:07.369Z,80.20
2017-08-05T23:11:46.645Z,79.70
2017-08-05T23:14:25.394Z,79.30
2017-08-05T23:17:01.306Z,81.20
2017-08-05T23:19:36.952Z,82.10
2017-08-05T23:22:12.042Z,81.60
2017-08-05T23:24:48.055Z,81.60
2017-08-05T23:27:22.491Z,81.70
2017-08-05T23:29:58.850Z,81.70
2017-08-05T23:32:33.710Z,81.10
2017-08-05T23:35:08.124Z,81.30
2017-08-05T23:37:45.919Z,80.60
2017-08-05T23:40:21.631Z,80.40
2017-08-05T23:42:58.311Z,82.00
2017-08-05T23:45:32.300Z,83.00
2017-08-05T23:48:07.458Z,82.90
2017-08-05T23:50:43.510Z,84.20
2017-08-05T23:53:19.104Z,84.60
2017-08-05T23:55:56.057Z,84.00
2017-08-05T23:58:31.907Z,85.90
